Terminal Aerodrome Forecast
Issued by NWS

Home | Current Version | Previous Version | Text Only | Print | Product List | Glossary On
Versions: 1 2 3 4 5 6 7 8 9 10 11 12 13 14 15 16 17 18 19 20 21 22 23 24
000
FTUS41 KPBZ 191140
TAFLBE
TAF
KLBE 191140Z 1912/2012 17009KT 6SM -RA OVC015 WS020/21045KT
     FM191600 19010KT 5SM -RA OVC010 WS020/21050KT
     FM192100 19009KT P6SM BKN015 WS020/22045KT
     FM200000 19006KT P6SM BKN035 WS020/23040KT=

USA.gov is the U.S. government's official web portal to all federal, state and local government web resources and services.